Airfield :
LOGIN :

Register | Disclaimer

   EN    FR    IT 

 










Legend :    VFR   Marginal VFR   IFR   Intensive IFR   Very Intensive IFR
Visi :
Ceiling :
>= 8 km
>= 3000ft
5 to 8 km
1000 to 3000 ft
1500m to 5 km
500 to 1000 ft
800 to 1500m
200 to 500 ft
< 800m
< 200 ft
Symbols :   Thunderstorms  Fog  Heavy snow  Heavy precipitations  Wind > 20 kt
SIGMETs :     Misc.  Thunderstorms  Icing  Turbulence  Mountain Waves  Volcanic Ashes







- Airport Elevation : 135 ft
- IATA code : EDI
- Download approach charts


EGPH - Edinburgh

CURRENT METAR :
  • 241720Z AUTO 28005KT 9999 NCD 11/01 Q1033

EXPIRED METARs :
  • 241650Z 26007KT CAVOK 11/01 Q1033
  • 241620Z 27006KT 240V320 CAVOK 12/01 Q1033
  • 241550Z 26006KT CAVOK 12/02 Q1033
  • 241520Z 27006KT 230V300 CAVOK 12/02 Q1033
  • 241450Z 27004KT 210V320 CAVOK 12/02 Q1033

TAF TAF EGPH
Valid from the 24 at 18:00 until the 25 at 18:00 UTC


241655Z 2418/2518 26006KT 9999 SCT030
PROB30 2506/2509 5000 BR
ATIS : +44 131 339 2823
No reported NOTAMs for that airfield.



MET'MAP, your aeronautical weather chart ! - Copyright ORBIFLY December 2007 - Disclaimer

ORBIFLY MET'MAP TEAM :

Programming & Development : Alexandra Zaïnal
Concept & Development : Baudouin d'Aumeries
Co-Development & Prog : Marc-Olivier Méhu
Technical & hardware support : Manuel Goepfert

Contact : metmap@orbifly.com




SOURCES & CREDITS :

   NOAA